Consolidator — V7LQ9 — position and weather

sailwx.info

Track history (hours):
 
Tides and Currents Weather Stations Pressure Air Temp Water Temp Dewpoint Dewpoint Depression Visibility Wind Speed Wind Dir Waves Ship Positions

Consolidator

Last reported at 2018-Feb-15 06:55 UTC. Time now 2018-Feb-21 11:05 UTC.
Position N 46°13' W 125°19'.

Length 190 m; draft 11.8 m.

Type: Cargo ship. MMSI: 538002793.

Date/timePositionNaut miles runAvg speedWind from/ knotsBaromVisibWave heightAir tempDewpointWater temp
2018-Feb-15 06:55N 46°13' W 125°19'4 8.9
2018-Feb-15 06:30N 46°13' W 125°13'4 8.7
2018-Feb-15 06:00N 46°12' W 125°07'4 8.5
2018-Feb-15 05:30N 46°12' W 125°01'4 8.4
2018-Feb-15 05:00N 46°12' W 124°55'4 8.4
2018-Feb-15 04:30N 46°12' W 124°49'4 8.0
2018-Feb-15 04:00N 46°12' W 124°43'4 7.8
2018-Feb-15 03:30N 46°12' W 124°37'4 8.0
2018-Feb-15 03:00N 46°11' W 124°32'4 8.5
2018-Feb-15 02:30N 46°12' W 124°26'4 8.7
2018-Feb-15 02:00N 46°12' W 124°19'4 8.5
2018-Feb-15 01:30N 46°12' W 124°13'4 8.7
2018-Feb-15 01:00N 46°14' W 124°07'510.7
2018-Feb-15 00:31N 46°15' W 123°60'612.3
2018-Feb-15 00:01N 46°12' W 123°52'5 9.9
2018-Feb-14 23:30N 46°13' W 123°45'612.2
2018-Feb-14 23:01N 46°15' W 123°37'612.1
2018-Feb-14 22:31N 46°16' W 123°28'510.9
2018-Feb-14 22:00N 46°11' W 123°26'5 9.9
2018-Feb-14 21:31N 46°09' W 123°20'611.5
2018-Feb-14 21:00N 46°11' W 123°12'510.0
2018-Feb-14 20:30N 46°10' W 123°05'611.1
2018-Feb-14 20:01N 46°07' W 122°58'2 3.2
2018-Feb-14 19:30N 46°06' W 122°56'0 0.0
2018-Feb-14 18:51N 46°06' W 122°56'0 0.0
2018-Feb-14 18:30N 46°06' W 122°56'0 0.0
2018-Feb-14 17:51N 46°06' W 122°56'0 0.0
2018-Feb-14 17:30N 46°06' W 122°56'0 0.0
2018-Feb-14 17:00N 46°06' W 122°56'0 0.0
2018-Feb-14 16:30N 46°06' W 122°56'0 0.0
2018-Feb-14 15:45N 46°06' W 122°56'0 0.1
2018-Feb-14 15:24N 46°06' W 122°56'0 0.1
2018-Feb-14 15:00N 46°06' W 122°56'0 0.1
2018-Feb-14 14:30N 46°06' W 122°56'0 0.0
2018-Feb-14 13:51N 46°06' W 122°56'0 0.0
2018-Feb-14 13:27N 46°06' W 122°56'0 0.1
2018-Feb-14 12:54N 46°06' W 122°56'0 0.1
2018-Feb-14 12:30N 46°06' W 122°56'0 0.0
2018-Feb-14 12:00N 46°06' W 122°56'0 0.0
2018-Feb-14 11:27N 46°06' W 122°56'0 0.0
2018-Feb-14 10:57N 46°06' W 122°56'0 0.0
2018-Feb-14 10:30N 46°06' W 122°56'0 0.0
2018-Feb-14 10:00N 46°06' W 122°56'0 0.0
2018-Feb-14 09:30N 46°06' W 122°56'0 0.0
2018-Feb-14 09:00N 46°06' W 122°56'0 0.0
2018-Feb-14 08:30N 46°06' W 122°56'0 0.0
2018-Feb-14 07:51N 46°06' W 122°56'0 0.0
2018-Feb-14 07:30N 46°06' W 122°56'0 0.0
2018-Feb-14 07:00N 46°06' W 122°56'0 0.0
2018-Feb-14 06:30N 46°06' W 122°56'0 0.1
2018-Feb-14 06:00N 46°06' W 122°56'0 0.1
2018-Feb-14 05:30N 46°06' W 122°56'0 0.0
2018-Feb-14 05:00N 46°06' W 122°56'0 0.0
2018-Feb-14 04:30N 46°06' W 122°56'0 0.0
2018-Feb-14 04:00N 46°06' W 122°56'0 0.0
2018-Feb-14 03:27N 46°06' W 122°56'0 0.0
2018-Feb-14 03:00N 46°06' W 122°56'0 0.0
2018-Feb-14 02:30N 46°06' W 122°56'0 0.0
2018-Feb-14 02:00N 46°06' W 122°56'0 0.0
2018-Feb-14 01:27N 46°06' W 122°56'0 0.1
2018-Feb-14 01:00N 46°06' W 122°56'0 0.0
2018-Feb-14 00:30N 46°06' W 122°56'0 0.0
2018-Feb-14 00:00N 46°06' W 122°56'0 0.0
2018-Feb-13 23:21N 46°06' W 122°56'0 0.1
2018-Feb-13 23:00N 46°06' W 122°56'0 0.1
2018-Feb-13 22:27N 46°06' W 122°56'0 0.0
2018-Feb-13 20:36N 46°06' W 122°56'0 0.0
2018-Feb-13 20:30N 46°06' W 122°56'0 0.1
2018-Feb-13 20:00N 46°06' W 122°56'0 0.0
2018-Feb-13 19:24N 46°06' W 122°56'0 0.0
2018-Feb-13 18:57N 46°06' W 122°56'0 0.0
2018-Feb-13 18:18N 46°06' W 122°56'0 0.0
2018-Feb-13 17:45N 46°06' W 122°56'0 0.1
2018-Feb-13 17:18N 46°06' W 122°56'0 0.2
2018-Feb-13 17:00N 46°06' W 122°56'0 0.0
2018-Feb-13 16:30N 46°06' W 122°56'0 0.0
2018-Feb-13 15:21N 46°06' W 122°56'0 0.0
2018-Feb-13 15:00N 46°06' W 122°56'0 0.1
2018-Feb-13 14:30N 46°06' W 122°56'0 0.1
2018-Feb-13 13:57N 46°06' W 122°56'0 0.0
2018-Feb-13 13:30N 46°06' W 122°56'0 0.0
2018-Feb-13 12:42N 46°06' W 122°56'0 0.2
2018-Feb-13 12:27N 46°06' W 122°56'0 0.1
2018-Feb-13 12:00N 46°06' W 122°56'0 0.0
2018-Feb-13 11:30N 46°06' W 122°56'0 0.1
2018-Feb-13 11:00N 46°06' W 122°56'0 0.1
2018-Feb-13 10:27N 46°06' W 122°56'0 0.0
2018-Feb-13 09:57N 46°06' W 122°56'0 0.0
2018-Feb-13 09:30N 46°06' W 122°56'0 0.0
2018-Feb-13 08:57N 46°06' W 122°56'0 0.1
2018-Feb-13 08:30N 46°06' W 122°56'0 0.1
2018-Feb-13 08:00N 46°06' W 122°56'0 0.1
2018-Feb-13 07:30N 46°06' W 122°56'0 0.1
2018-Feb-13 06:57N 46°06' W 122°56'0 0.0
2018-Feb-13 06:30N 46°06' W 122°56'0 0.0
2018-Feb-13 05:48N 46°06' W 122°56'0 0.0
2018-Feb-13 05:21N 46°06' W 122°56'0 0.1
2018-Feb-13 05:00N 46°06' W 122°56'0 0.1
2018-Feb-13 04:30N 46°06' W 122°56'0 0.0
2018-Feb-13 04:00N 46°06' W 122°56'0 0.0
2018-Feb-13 03:30N 46°06' W 122°56'0 0.0
2018-Feb-13 03:00N 46°06' W 122°56'0 0.0
2018-Feb-13 02:30N 46°06' W 122°56'0 0.0
2018-Feb-13 01:54N 46°06' W 122°56'0 0.0
2018-Feb-13 01:27N 46°06' W 122°56'0 0.0
2018-Feb-13 00:57N 46°06' W 122°56'0 0.0
2018-Feb-13 00:13N 46°06' W 122°56'0 0.0
2018-Feb-13 00:00N 46°06' W 122°56'0 0.0
2018-Feb-12 23:30N 46°06' W 122°56'0 0.1
2018-Feb-12 23:00N 46°06' W 122°56'1 2.3
2018-Feb-12 22:30N 46°06' W 122°58'2 4.6
2018-Feb-12 22:00N 46°08' W 123°00'4 7.5
2018-Feb-12 21:30N 46°10' W 123°05'4 8.9
2018-Feb-12 21:00N 46°11' W 123°11'710.5
2018-Feb-12 20:19N 46°09' W 123°21'3 9.8
2018-Feb-12 20:00N 46°10' W 123°25'611.0
2018-Feb-12 19:30N 46°15' W 123°27'611.4
2018-Feb-12 19:00N 46°15' W 123°35'612.1
2018-Feb-12 18:30N 46°14' W 123°44'3 5.2
2018-Feb-12 17:59N 46°12' W 123°47'0 0.2
2018-Feb-12 17:29N 46°12' W 123°47'0 0.2
2018-Feb-12 16:56N 46°12' W 123°47'0 0.1
2018-Feb-12 16:20N 46°12' W 123°47'0 0.0
2018-Feb-12 15:59N 46°12' W 123°47'0 0.0
2018-Feb-12 15:29N 46°12' W 123°47'0 0.0
2018-Feb-12 14:56N 46°12' W 123°47'0 0.1
2018-Feb-12 14:29N 46°12' W 123°47'0 0.0
2018-Feb-12 13:59N 46°12' W 123°47'0 0.0
2018-Feb-12 13:29N 46°12' W 123°47'0 0.0
2018-Feb-12 12:56N 46°12' W 123°47'0 0.0
2018-Feb-12 12:29N 46°12' W 123°47'0 0.0
2018-Feb-12 11:56N 46°12' W 123°47'0 0.0
2018-Feb-12 11:29N 46°12' W 123°47'0 0.0
2018-Feb-12 10:59N 46°12' W 123°47'0 0.0
2018-Feb-12 10:26N 46°12' W 123°47'0 0.0
2018-Feb-12 09:59N 46°12' W 123°47'0 0.0
2018-Feb-12 09:29N 46°12' W 123°47'0 0.0
2018-Feb-12 08:59N 46°12' W 123°47'0 0.0
2018-Feb-12 08:29N 46°12' W 123°47'0 0.1
2018-Feb-12 07:59N 46°12' W 123°47'0 0.3
2018-Feb-12 07:29N 46°12' W 123°47'0 0.0
2018-Feb-12 06:59N 46°12' W 123°47'0 0.0
2018-Feb-12 06:29N 46°12' W 123°47'0 0.2
2018-Feb-12 05:47N 46°12' W 123°47'0 0.1
2018-Feb-12 05:29N 46°12' W 123°47'0 0.1
2018-Feb-12 04:59N 46°12' W 123°47'0 0.1
2018-Feb-12 04:29N 46°12' W 123°47'0 0.1
2018-Feb-12 03:59N 46°12' W 123°47'0 0.1
2018-Feb-12 03:29N 46°12' W 123°47'0 0.0
2018-Feb-12 02:59N 46°12' W 123°47'0 0.1
2018-Feb-12 02:29N 46°12' W 123°47'0 0.0
2018-Feb-12 01:59N 46°12' W 123°47'0 0.1
2018-Feb-12 01:29N 46°12' W 123°47'0 0.0
2018-Feb-12 00:59N 46°12' W 123°47'0 0.0
2018-Feb-12 00:29N 46°12' W 123°47'0 0.0
2018-Feb-11 23:59N 46°12' W 123°47'0 0.0
2018-Feb-11 23:29N 46°12' W 123°47'0 0.0
2018-Feb-11 22:59N 46°12' W 123°47'0 0.1
2018-Feb-11 22:29N 46°12' W 123°47'0 0.0
2018-Feb-11 21:59N 46°12' W 123°47'0 0.0
2018-Feb-11 21:29N 46°12' W 123°47'0 0.0
2018-Feb-11 20:59N 46°12' W 123°47'0 0.0
2018-Feb-11 19:59N 46°12' W 123°47'0 0.0
2018-Feb-11 19:14N 46°12' W 123°47'0 0.0
2018-Feb-11 18:59N 46°12' W 123°47'0 0.0
2018-Feb-11 18:29N 46°12' W 123°47'0 0.1
2018-Feb-11 17:59N 46°12' W 123°47'0 0.1
2018-Feb-11 17:29N 46°12' W 123°47'0 0.0
2018-Feb-11 16:59N 46°12' W 123°47'0 0.1
2018-Feb-11 16:26N 46°12' W 123°47'0 0.1
2018-Feb-11 15:59N 46°12' W 123°47'0 0.0
2018-Feb-11 15:29N 46°12' W 123°47'0 0.0
2018-Feb-11 14:59N 46°12' W 123°47'0 0.1
2018-Feb-11 14:29N 46°12' W 123°47'0 0.0
2018-Feb-11 13:56N 46°12' W 123°47'0 0.1
2018-Feb-11 13:29N 46°12' W 123°47'0 0.0
2018-Feb-11 12:53N 46°12' W 123°47'0 0.0
2018-Feb-11 12:29N 46°12' W 123°47'0 0.0
2018-Feb-11 11:53N 46°12' W 123°47'0 0.0
2018-Feb-11 11:29N 46°12' W 123°47'0 0.0
2018-Feb-11 10:59N 46°12' W 123°47'0 0.0
2018-Feb-11 10:29N 46°12' W 123°47'0 0.0
2018-Feb-11 09:59N 46°12' W 123°47'0 0.0
2018-Feb-11 09:29N 46°12' W 123°47'0 0.0
2018-Feb-11 08:59N 46°12' W 123°47'0 0.0
2018-Feb-11 08:29N 46°12' W 123°47'0 0.0
2018-Feb-11 07:59N 46°12' W 123°47'0 0.2
2018-Feb-11 07:26N 46°12' W 123°47'0 0.2
2018-Feb-11 06:59N 46°12' W 123°47'0 0.1
2018-Feb-11 06:29N 46°12' W 123°47'0 0.1
2018-Feb-11 05:50N 46°12' W 123°47'0 0.1
2018-Feb-11 05:29N 46°12' W 123°47'0 0.0
2018-Feb-11 04:59N 46°12' W 123°47'0 0.2
2018-Feb-11 04:29N 46°12' W 123°47'0 0.0
2018-Feb-11 03:59N 46°12' W 123°47'0 0.1
2018-Feb-11 03:29N 46°12' W 123°47'0 0.1
2018-Feb-11 02:59N 46°12' W 123°47'0 0.0
2018-Feb-11 02:17N 46°12' W 123°47'0 0.0
2018-Feb-11 01:59N 46°12' W 123°47'0 0.0
2018-Feb-11 01:29N 46°12' W 123°47'0 0.0
2018-Feb-11 00:59N 46°12' W 123°47'0 0.0
2018-Feb-11 00:23N 46°12' W 123°47'0 0.0
2018-Feb-10 23:56N 46°12' W 123°47'0 0.0
2018-Feb-10 23:29N 46°12' W 123°47'0 0.0
2018-Feb-10 22:59N 46°12' W 123°47'0 0.0
2018-Feb-10 22:29N 46°12' W 123°47'0 0.0
2018-Feb-10 21:56N 46°12' W 123°47'0 0.0
2018-Feb-10 21:29N 46°12' W 123°47'0 0.0
2018-Feb-10 20:56N 46°12' W 123°47'0 0.0
2018-Feb-10 20:29N 46°12' W 123°47'0 0.0
2018-Feb-10 19:59N 46°12' W 123°47'0 0.0
2018-Feb-10 19:29N 46°12' W 123°47'0 0.0
2018-Feb-10 18:58N 46°12' W 123°47'0 0.0
2018-Feb-10 18:29N 46°12' W 123°47'0 0.0
2018-Feb-10 17:59N 46°12' W 123°47'0 0.0
2018-Feb-10 17:29N 46°12' W 123°47'0 0.1
2018-Feb-10 16:56N 46°12' W 123°47'0 0.1
2018-Feb-10 16:26N 46°12' W 123°47'0 0.1
2018-Feb-10 15:59N 46°12' W 123°47'0 0.0
2018-Feb-10 15:29N 46°12' W 123°47'0 0.0
2018-Feb-10 14:59N 46°12' W 123°47'0 0.1
2018-Feb-10 14:26N 46°12' W 123°47'0 0.0
2018-Feb-10 13:56N 46°12' W 123°47'0 0.0
2018-Feb-10 13:28N 46°12' W 123°47'0 0.0
2018-Feb-10 12:56N 46°12' W 123°47'0 0.1
2018-Feb-10 12:29N 46°12' W 123°47'0 0.0
2018-Feb-10 11:59N 46°12' W 123°47'0 0.1
2018-Feb-10 11:29N 46°12' W 123°47'0 0.0
2018-Feb-10 10:59N 46°12' W 123°47'0 0.1
2018-Feb-10 10:29N 46°12' W 123°47'0 0.0
2018-Feb-10 09:59N 46°12' W 123°47'0 0.0
2018-Feb-10 09:29N 46°12' W 123°47'0 0.0
2018-Feb-10 08:59N 46°12' W 123°47'0 0.0
2018-Feb-10 08:25N 46°12' W 123°47'0 0.0
2018-Feb-10 07:59N 46°12' W 123°47'0 0.0
2018-Feb-10 07:29N 46°12' W 123°47'0 0.0
2018-Feb-10 06:50N 46°12' W 123°47'0 0.0
2018-Feb-10 06:11N 46°12' W 123°47'0 0.1
2018-Feb-10 05:59N 46°12' W 123°47'0 0.3
2018-Feb-10 05:29N 46°12' W 123°47'0 0.1
2018-Feb-10 04:59N 46°12' W 123°47'0 0.0
2018-Feb-10 04:29N 46°12' W 123°47'0 0.0
2018-Feb-10 03:53N 46°12' W 123°47'0 0.1
2018-Feb-10 03:29N 46°12' W 123°47'0 0.0
2018-Feb-10 02:56N 46°12' W 123°47'0 0.2
2018-Feb-10 02:29N 46°12' W 123°47'0 0.1
2018-Feb-10 01:59N 46°12' W 123°47'0 0.1
2018-Feb-10 01:29N 46°12' W 123°47'0 0.0
2018-Feb-10 00:59N 46°12' W 123°47'0 0.2
2018-Feb-10 00:29N 46°12' W 123°47'0 0.0
2018-Feb-09 23:58N 46°12' W 123°47'0 0.0
2018-Feb-09 23:29N 46°12' W 123°47'0 0.0
2018-Feb-09 22:43N 46°12' W 123°47'0 0.0
2018-Feb-08 01:25N 46°12' W 123°47'0 0.0
2018-Feb-08 00:58N 46°12' W 123°47'0 0.1
2018-Feb-08 00:28N 46°12' W 123°47'0 0.3
2018-Feb-07 23:58N 46°12' W 123°47'0 0.2
2018-Feb-07 23:28N 46°12' W 123°47'0 0.0
2018-Feb-07 22:58N 46°12' W 123°47'0 0.1
2018-Feb-07 22:25N 46°12' W 123°47'0 0.0
2018-Feb-07 21:58N 46°12' W 123°47'0 0.0
2018-Feb-07 21:28N 46°12' W 123°47'0 0.0
2018-Feb-07 09:28N 46°12' W 123°47'0 0.1
2018-Feb-07 08:58N 46°12' W 123°47'0 0.0
2018-Feb-07 08:28N 46°12' W 123°47'0 0.0
2018-Feb-07 07:58N 46°12' W 123°47'0 0.0
2018-Feb-07 07:28N 46°12' W 123°47'0 0.0
2018-Feb-07 06:58N 46°12' W 123°47'0 0.0
2018-Feb-07 06:25N 46°12' W 123°47'0 0.0
2018-Feb-07 05:58N 46°12' W 123°47'0 0.0
2018-Feb-07 05:28N 46°12' W 123°47'0 0.0
2018-Feb-07 04:58N 46°12' W 123°47'0 0.0
2018-Feb-07 04:28N 46°12' W 123°47'0 0.0
2018-Feb-07 03:58N 46°12' W 123°47'0 0.0
2018-Feb-07 03:28N 46°12' W 123°47'0 0.1
2018-Feb-07 02:58N 46°12' W 123°47'0 0.1
2018-Feb-07 01:31N 46°12' W 123°47'0 0.2
2018-Feb-07 01:28N 46°12' W 123°47'0 0.0
2018-Feb-07 00:58N 46°12' W 123°47'0 0.0
2018-Feb-07 00:28N 46°12' W 123°47'0 0.0
2018-Feb-06 23:58N 46°12' W 123°47'0 0.0
2018-Feb-06 23:28N 46°12' W 123°47'0 0.1
2018-Feb-06 22:58N 46°12' W 123°47'0 0.3
2018-Feb-06 22:28N 46°12' W 123°47'0 0.1
2018-Feb-06 21:52N 46°12' W 123°47'0 0.0
2018-Feb-06 21:25N 46°12' W 123°47'0 0.1
2018-Feb-06 20:58N 46°12' W 123°47'0 0.0
2018-Feb-06 20:28N 46°12' W 123°47'0 0.0
2018-Feb-06 19:58N 46°12' W 123°47'0 0.0
2018-Feb-06 19:07N 46°12' W 123°47'0 0.0
2018-Feb-06 18:55N 46°12' W 123°47'0 0.0
2018-Feb-06 18:28N 46°12' W 123°47'0 0.0
2018-Feb-06 17:34N 46°12' W 123°47'0 0.1
2018-Feb-06 17:28N 46°12' W 123°47'0 0.0
2018-Feb-06 16:55N 46°12' W 123°47'0 0.0
2018-Feb-06 16:28N 46°12' W 123°47'0 0.0
2018-Feb-06 15:58N 46°12' W 123°47'0 0.0
2018-Feb-06 15:28N 46°12' W 123°47'0 0.1
2018-Feb-06 14:58N 46°12' W 123°47'0 0.4
2018-Feb-06 14:28N 46°13' W 123°47'0 0.1
2018-Feb-06 13:58N 46°12' W 123°47'0 0.0
2018-Feb-06 13:28N 46°12' W 123°47'0 0.0
2018-Feb-06 12:58N 46°12' W 123°47'0 0.0
2018-Feb-06 12:28N 46°12' W 123°47'0 0.0
2018-Feb-06 11:58N 46°13' W 123°47'0 0.0
2018-Feb-06 11:28N 46°12' W 123°47'0 0.0
2018-Feb-06 10:58N 46°12' W 123°47'0 0.0
2018-Feb-06 10:28N 46°12' W 123°47'0 0.0
2018-Feb-06 09:58N 46°12' W 123°47'0 0.0
2018-Feb-06 09:28N 46°12' W 123°47'0 0.2
2018-Feb-06 08:58N 46°12' W 123°47'0 0.1
2018-Feb-06 08:22N 46°12' W 123°47'0 0.1
2018-Feb-06 07:58N 46°12' W 123°47'0 0.1
2018-Feb-06 07:28N 46°12' W 123°47'0 0.0
2018-Feb-06 06:58N 46°12' W 123°47'0 0.0
2018-Feb-06 06:25N 46°12' W 123°47'0 0.0
2018-Feb-06 05:43N 46°12' W 123°47'0 0.0
2018-Feb-06 05:28N 46°12' W 123°47'0 0.0
2018-Feb-06 04:58N 46°12' W 123°47'0 0.0
2018-Feb-06 04:28N 46°12' W 123°47'0 0.1
2018-Feb-06 03:58N 46°12' W 123°47'0 0.0
2018-Feb-06 03:28N 46°12' W 123°47'0 0.0
2018-Feb-06 02:58N 46°12' W 123°47'0 0.2
2018-Feb-06 02:28N 46°12' W 123°47'0 0.3
2018-Feb-06 01:58N 46°13' W 123°47'0 0.1
2018-Feb-06 01:28N 46°12' W 123°47'0 0.0
2018-Feb-06 00:58N 46°12' W 123°47'0 0.0
2018-Feb-06 00:28N 46°12' W 123°47'0 0.0
2018-Feb-05 23:58N 46°12' W 123°47'0 0.0
2018-Feb-05 23:28N 46°12' W 123°47'0 0.0
2018-Feb-05 22:58N 46°12' W 123°47'0 0.0
2018-Feb-05 22:22N 46°12' W 123°47'0 0.0
2018-Feb-05 21:58N 46°12' W 123°47'0 0.0
2018-Feb-05 21:28N 46°12' W 123°47'0 0.2
2018-Feb-05 20:49N 46°12' W 123°47'0 0.1
2018-Feb-05 20:28N 46°12' W 123°47'0 0.1
2018-Feb-05 19:58N 46°12' W 123°47'0 0.0
2018-Feb-05 19:25N 46°12' W 123°47'0 0.0
2018-Feb-05 18:58N 46°12' W 123°47'0 0.1
2018-Feb-05 18:25N 46°12' W 123°47'0 0.0
2018-Feb-05 17:55N 46°12' W 123°47'0 0.1
2018-Feb-05 17:28N 46°12' W 123°47'0 0.0
2018-Feb-05 16:58N 46°12' W 123°47'0 0.0
2018-Feb-05 16:25N 46°12' W 123°47'0 0.0
2018-Feb-05 15:58N 46°12' W 123°47'0 0.0
2018-Feb-05 15:28N 46°12' W 123°47'0 0.0
2018-Feb-05 14:58N 46°12' W 123°47'0 0.2
2018-Feb-05 14:28N 46°12' W 123°47'0 0.3
2018-Feb-05 13:58N 46°13' W 123°47'0 0.0
2018-Feb-05 13:16N 46°13' W 123°47'0 0.0
2018-Feb-05 12:58N 46°13' W 123°47'0 0.0
2018-Feb-05 12:28N 46°13' W 123°47'0 0.0
2018-Feb-05 11:58N 46°13' W 123°47'0 0.0
2018-Feb-05 11:28N 46°13' W 123°47'0 0.0
2018-Feb-05 10:58N 46°13' W 123°47'0 0.0
2018-Feb-05 10:28N 46°13' W 123°47'0 0.0
2018-Feb-05 09:58N 46°13' W 123°47'0 0.0
2018-Feb-05 09:28N 46°13' W 123°47'0 0.0
2018-Feb-05 08:58N 46°12' W 123°47'0 0.1
2018-Feb-05 08:28N 46°12' W 123°47'0 0.3
2018-Feb-05 07:55N 46°12' W 123°47'0 0.1
2018-Feb-05 07:25N 46°12' W 123°47'0 0.1
2018-Feb-05 06:58N 46°12' W 123°47'  
Track history (hours):
 
Tides and Currents Weather Stations Pressure Air Temp Water Temp Dewpoint Dewpoint Depression Visibility Wind Speed Wind Dir Waves Ship Positions

Consolidator

Last reported at 2018-Feb-15 06:55 UTC. Time now 2018-Feb-21 11:05 UTC.
Position N 46°13' W 125°19'.

Length 190 m; draft 11.8 m.

Type: Cargo ship. MMSI: 538002793.

Date/timePositionNaut miles runAvg speedWind from/ knotsBaromVisibWave heightAir tempDewpointWater temp
2018-Feb-15 06:55N 46°13' W 125°19'4 8.9
2018-Feb-15 06:30N 46°13' W 125°13'4 8.7
2018-Feb-15 06:00N 46°12' W 125°07'4 8.5
2018-Feb-15 05:30N 46°12' W 125°01'4 8.4
2018-Feb-15 05:00N 46°12' W 124°55'4 8.4
2018-Feb-15 04:30N 46°12' W 124°49'4 8.0
2018-Feb-15 04:00N 46°12' W 124°43'4 7.8
2018-Feb-15 03:30N 46°12' W 124°37'4 8.0
2018-Feb-15 03:00N 46°11' W 124°32'4 8.5
2018-Feb-15 02:30N 46°12' W 124°26'4 8.7
2018-Feb-15 02:00N 46°12' W 124°19'4 8.5
2018-Feb-15 01:30N 46°12' W 124°13'4 8.7
2018-Feb-15 01:00N 46°14' W 124°07'510.7
2018-Feb-15 00:31N 46°15' W 123°60'612.3
2018-Feb-15 00:01N 46°12' W 123°52'5 9.9
2018-Feb-14 23:30N 46°13' W 123°45'612.2
2018-Feb-14 23:01N 46°15' W 123°37'612.1
2018-Feb-14 22:31N 46°16' W 123°28'510.9
2018-Feb-14 22:00N 46°11' W 123°26'5 9.9
2018-Feb-14 21:31N 46°09' W 123°20'611.5
2018-Feb-14 21:00N 46°11' W 123°12'510.0
2018-Feb-14 20:30N 46°10' W 123°05'611.1
2018-Feb-14 20:01N 46°07' W 122°58'2 3.2
2018-Feb-14 19:30N 46°06' W 122°56'0 0.0
2018-Feb-14 18:51N 46°06' W 122°56'0 0.0
2018-Feb-14 18:30N 46°06' W 122°56'0 0.0
2018-Feb-14 17:51N 46°06' W 122°56'0 0.0
2018-Feb-14 17:30N 46°06' W 122°56'0 0.0
2018-Feb-14 17:00N 46°06' W 122°56'0 0.0
2018-Feb-14 16:30N 46°06' W 122°56'0 0.0
2018-Feb-14 15:45N 46°06' W 122°56'0 0.1
2018-Feb-14 15:24N 46°06' W 122°56'0 0.1
2018-Feb-14 15:00N 46°06' W 122°56'0 0.1
2018-Feb-14 14:30N 46°06' W 122°56'0 0.0
2018-Feb-14 13:51N 46°06' W 122°56'0 0.0
2018-Feb-14 13:27N 46°06' W 122°56'0 0.1
2018-Feb-14 12:54N 46°06' W 122°56'0 0.1
2018-Feb-14 12:30N 46°06' W 122°56'0 0.0
2018-Feb-14 12:00N 46°06' W 122°56'0 0.0
2018-Feb-14 11:27N 46°06' W 122°56'0 0.0
2018-Feb-14 10:57N 46°06' W 122°56'0 0.0
2018-Feb-14 10:30N 46°06' W 122°56'0 0.0
2018-Feb-14 10:00N 46°06' W 122°56'0 0.0
2018-Feb-14 09:30N 46°06' W 122°56'0 0.0
2018-Feb-14 09:00N 46°06' W 122°56'0 0.0
2018-Feb-14 08:30N 46°06' W 122°56'0 0.0
2018-Feb-14 07:51N 46°06' W 122°56'0 0.0
2018-Feb-14 07:30N 46°06' W 122°56'0 0.0
2018-Feb-14 07:00N 46°06' W 122°56'0 0.0
2018-Feb-14 06:30N 46°06' W 122°56'0 0.1
2018-Feb-14 06:00N 46°06' W 122°56'0 0.1
2018-Feb-14 05:30N 46°06' W 122°56'0 0.0
2018-Feb-14 05:00N 46°06' W 122°56'0 0.0
2018-Feb-14 04:30N 46°06' W 122°56'0 0.0
2018-Feb-14 04:00N 46°06' W 122°56'0 0.0
2018-Feb-14 03:27N 46°06' W 122°56'0 0.0
2018-Feb-14 03:00N 46°06' W 122°56'0 0.0
2018-Feb-14 02:30N 46°06' W 122°56'0 0.0
2018-Feb-14 02:00N 46°06' W 122°56'0 0.0
2018-Feb-14 01:27N 46°06' W 122°56'0 0.1
2018-Feb-14 01:00N 46°06' W 122°56'0 0.0
2018-Feb-14 00:30N 46°06' W 122°56'0 0.0
2018-Feb-14 00:00N 46°06' W 122°56'0 0.0
2018-Feb-13 23:21N 46°06' W 122°56'0 0.1
2018-Feb-13 23:00N 46°06' W 122°56'0 0.1
2018-Feb-13 22:27N 46°06' W 122°56'0 0.0
2018-Feb-13 20:36N 46°06' W 122°56'0 0.0
2018-Feb-13 20:30N 46°06' W 122°56'0 0.1
2018-Feb-13 20:00N 46°06' W 122°56'0 0.0
2018-Feb-13 19:24N 46°06' W 122°56'0 0.0
2018-Feb-13 18:57N 46°06' W 122°56'0 0.0
2018-Feb-13 18:18N 46°06' W 122°56'0 0.0
2018-Feb-13 17:45N 46°06' W 122°56'0 0.1
2018-Feb-13 17:18N 46°06' W 122°56'0 0.2
2018-Feb-13 17:00N 46°06' W 122°56'0 0.0
2018-Feb-13 16:30N 46°06' W 122°56'0 0.0
2018-Feb-13 15:21N 46°06' W 122°56'0 0.0
2018-Feb-13 15:00N 46°06' W 122°56'0 0.1
2018-Feb-13 14:30N 46°06' W 122°56'0 0.1
2018-Feb-13 13:57N 46°06' W 122°56'0 0.0
2018-Feb-13 13:30N 46°06' W 122°56'0 0.0
2018-Feb-13 12:42N 46°06' W 122°56'0 0.2
2018-Feb-13 12:27N 46°06' W 122°56'0 0.1
2018-Feb-13 12:00N 46°06' W 122°56'0 0.0
2018-Feb-13 11:30N 46°06' W 122°56'0 0.1
2018-Feb-13 11:00N 46°06' W 122°56'0 0.1
2018-Feb-13 10:27N 46°06' W 122°56'0 0.0
2018-Feb-13 09:57N 46°06' W 122°56'0 0.0
2018-Feb-13 09:30N 46°06' W 122°56'0 0.0
2018-Feb-13 08:57N 46°06' W 122°56'0 0.1
2018-Feb-13 08:30N 46°06' W 122°56'0 0.1
2018-Feb-13 08:00N 46°06' W 122°56'0 0.1
2018-Feb-13 07:30N 46°06' W 122°56'0 0.1
2018-Feb-13 06:57N 46°06' W 122°56'0 0.0
2018-Feb-13 06:30N 46°06' W 122°56'0 0.0
2018-Feb-13 05:48N 46°06' W 122°56'0 0.0
2018-Feb-13 05:21N 46°06' W 122°56'0 0.1
2018-Feb-13 05:00N 46°06' W 122°56'0 0.1
2018-Feb-13 04:30N 46°06' W 122°56'0 0.0
2018-Feb-13 04:00N 46°06' W 122°56'0 0.0
2018-Feb-13 03:30N 46°06' W 122°56'0 0.0
2018-Feb-13 03:00N 46°06' W 122°56'0 0.0
2018-Feb-13 02:30N 46°06' W 122°56'0 0.0
2018-Feb-13 01:54N 46°06' W 122°56'0 0.0
2018-Feb-13 01:27N 46°06' W 122°56'0 0.0
2018-Feb-13 00:57N 46°06' W 122°56'0 0.0
2018-Feb-13 00:13N 46°06' W 122°56'0 0.0
2018-Feb-13 00:00N 46°06' W 122°56'0 0.0
2018-Feb-12 23:30N 46°06' W 122°56'0 0.1
2018-Feb-12 23:00N 46°06' W 122°56'1 2.3
2018-Feb-12 22:30N 46°06' W 122°58'2 4.6
2018-Feb-12 22:00N 46°08' W 123°00'4 7.5
2018-Feb-12 21:30N 46°10' W 123°05'4 8.9
2018-Feb-12 21:00N 46°11' W 123°11'710.5
2018-Feb-12 20:19N 46°09' W 123°21'3 9.8
2018-Feb-12 20:00N 46°10' W 123°25'611.0
2018-Feb-12 19:30N 46°15' W 123°27'611.4
2018-Feb-12 19:00N 46°15' W 123°35'612.1
2018-Feb-12 18:30N 46°14' W 123°44'3 5.2
2018-Feb-12 17:59N 46°12' W 123°47'0 0.2
2018-Feb-12 17:29N 46°12' W 123°47'0 0.2
2018-Feb-12 16:56N 46°12' W 123°47'0 0.1
2018-Feb-12 16:20N 46°12' W 123°47'0 0.0
2018-Feb-12 15:59N 46°12' W 123°47'0 0.0
2018-Feb-12 15:29N 46°12' W 123°47'0 0.0
2018-Feb-12 14:56N 46°12' W 123°47'0 0.1
2018-Feb-12 14:29N 46°12' W 123°47'0 0.0
2018-Feb-12 13:59N 46°12' W 123°47'0 0.0
2018-Feb-12 13:29N 46°12' W 123°47'0 0.0
2018-Feb-12 12:56N 46°12' W 123°47'0 0.0
2018-Feb-12 12:29N 46°12' W 123°47'0 0.0
2018-Feb-12 11:56N 46°12' W 123°47'0 0.0
2018-Feb-12 11:29N 46°12' W 123°47'0 0.0
2018-Feb-12 10:59N 46°12' W 123°47'0 0.0
2018-Feb-12 10:26N 46°12' W 123°47'0 0.0
2018-Feb-12 09:59N 46°12' W 123°47'0 0.0
2018-Feb-12 09:29N 46°12' W 123°47'0 0.0
2018-Feb-12 08:59N 46°12' W 123°47'0 0.0
2018-Feb-12 08:29N 46°12' W 123°47'0 0.1
2018-Feb-12 07:59N 46°12' W 123°47'0 0.3
2018-Feb-12 07:29N 46°12' W 123°47'0 0.0
2018-Feb-12 06:59N 46°12' W 123°47'0 0.0
2018-Feb-12 06:29N 46°12' W 123°47'0 0.2
2018-Feb-12 05:47N 46°12' W 123°47'0 0.1
2018-Feb-12 05:29N 46°12' W 123°47'0 0.1
2018-Feb-12 04:59N 46°12' W 123°47'0 0.1
2018-Feb-12 04:29N 46°12' W 123°47'0 0.1
2018-Feb-12 03:59N 46°12' W 123°47'0 0.1
2018-Feb-12 03:29N 46°12' W 123°47'0 0.0
2018-Feb-12 02:59N 46°12' W 123°47'0 0.1
2018-Feb-12 02:29N 46°12' W 123°47'0 0.0
2018-Feb-12 01:59N 46°12' W 123°47'0 0.1
2018-Feb-12 01:29N 46°12' W 123°47'0 0.0
2018-Feb-12 00:59N 46°12' W 123°47'0 0.0
2018-Feb-12 00:29N 46°12' W 123°47'0 0.0
2018-Feb-11 23:59N 46°12' W 123°47'0 0.0
2018-Feb-11 23:29N 46°12' W 123°47'0 0.0
2018-Feb-11 22:59N 46°12' W 123°47'0 0.1
2018-Feb-11 22:29N 46°12' W 123°47'0 0.0
2018-Feb-11 21:59N 46°12' W 123°47'0 0.0
2018-Feb-11 21:29N 46°12' W 123°47'0 0.0
2018-Feb-11 20:59N 46°12' W 123°47'0 0.0
2018-Feb-11 19:59N 46°12' W 123°47'0 0.0
2018-Feb-11 19:14N 46°12' W 123°47'0 0.0
2018-Feb-11 18:59N 46°12' W 123°47'0 0.0
2018-Feb-11 18:29N 46°12' W 123°47'0 0.1
2018-Feb-11 17:59N 46°12' W 123°47'0 0.1
2018-Feb-11 17:29N 46°12' W 123°47'0 0.0
2018-Feb-11 16:59N 46°12' W 123°47'0 0.1
2018-Feb-11 16:26N 46°12' W 123°47'0 0.1
2018-Feb-11 15:59N 46°12' W 123°47'0 0.0
2018-Feb-11 15:29N 46°12' W 123°47'0 0.0
2018-Feb-11 14:59N 46°12' W 123°47'0 0.1
2018-Feb-11 14:29N 46°12' W 123°47'0 0.0
2018-Feb-11 13:56N 46°12' W 123°47'0 0.1
2018-Feb-11 13:29N 46°12' W 123°47'0 0.0
2018-Feb-11 12:53N 46°12' W 123°47'0 0.0
2018-Feb-11 12:29N 46°12' W 123°47'0 0.0
2018-Feb-11 11:53N 46°12' W 123°47'0 0.0
2018-Feb-11 11:29N 46°12' W 123°47'0 0.0
2018-Feb-11 10:59N 46°12' W 123°47'0 0.0
2018-Feb-11 10:29N 46°12' W 123°47'0 0.0
2018-Feb-11 09:59N 46°12' W 123°47'0 0.0
2018-Feb-11 09:29N 46°12' W 123°47'0 0.0
2018-Feb-11 08:59N 46°12' W 123°47'0 0.0
2018-Feb-11 08:29N 46°12' W 123°47'0 0.0
2018-Feb-11 07:59N 46°12' W 123°47'0 0.2
2018-Feb-11 07:26N 46°12' W 123°47'0 0.2
2018-Feb-11 06:59N 46°12' W 123°47'0 0.1
2018-Feb-11 06:29N 46°12' W 123°47'0 0.1
2018-Feb-11 05:50N 46°12' W 123°47'0 0.1
2018-Feb-11 05:29N 46°12' W 123°47'0 0.0
2018-Feb-11 04:59N 46°12' W 123°47'0 0.2
2018-Feb-11 04:29N 46°12' W 123°47'0 0.0
2018-Feb-11 03:59N 46°12' W 123°47'0 0.1
2018-Feb-11 03:29N 46°12' W 123°47'0 0.1
2018-Feb-11 02:59N 46°12' W 123°47'0 0.0
2018-Feb-11 02:17N 46°12' W 123°47'0 0.0
2018-Feb-11 01:59N 46°12' W 123°47'0 0.0
2018-Feb-11 01:29N 46°12' W 123°47'0 0.0
2018-Feb-11 00:59N 46°12' W 123°47'0 0.0
2018-Feb-11 00:23N 46°12' W 123°47'0 0.0
2018-Feb-10 23:56N 46°12' W 123°47'0 0.0
2018-Feb-10 23:29N 46°12' W 123°47'0 0.0
2018-Feb-10 22:59N 46°12' W 123°47'0 0.0
2018-Feb-10 22:29N 46°12' W 123°47'0 0.0
2018-Feb-10 21:56N 46°12' W 123°47'0 0.0
2018-Feb-10 21:29N 46°12' W 123°47'0 0.0
2018-Feb-10 20:56N 46°12' W 123°47'0 0.0
2018-Feb-10 20:29N 46°12' W 123°47'0 0.0
2018-Feb-10 19:59N 46°12' W 123°47'0 0.0
2018-Feb-10 19:29N 46°12' W 123°47'0 0.0
2018-Feb-10 18:58N 46°12' W 123°47'0 0.0
2018-Feb-10 18:29N 46°12' W 123°47'0 0.0
2018-Feb-10 17:59N 46°12' W 123°47'0 0.0
2018-Feb-10 17:29N 46°12' W 123°47'0 0.1
2018-Feb-10 16:56N 46°12' W 123°47'0 0.1
2018-Feb-10 16:26N 46°12' W 123°47'0 0.1
2018-Feb-10 15:59N 46°12' W 123°47'0 0.0
2018-Feb-10 15:29N 46°12' W 123°47'0 0.0
2018-Feb-10 14:59N 46°12' W 123°47'0 0.1
2018-Feb-10 14:26N 46°12' W 123°47'0 0.0
2018-Feb-10 13:56N 46°12' W 123°47'0 0.0
2018-Feb-10 13:28N 46°12' W 123°47'0 0.0
2018-Feb-10 12:56N 46°12' W 123°47'0 0.1
2018-Feb-10 12:29N 46°12' W 123°47'0 0.0
2018-Feb-10 11:59N 46°12' W 123°47'0 0.1
2018-Feb-10 11:29N 46°12' W 123°47'0 0.0
2018-Feb-10 10:59N 46°12' W 123°47'0 0.1
2018-Feb-10 10:29N 46°12' W 123°47'0 0.0
2018-Feb-10 09:59N 46°12' W 123°47'0 0.0
2018-Feb-10 09:29N 46°12' W 123°47'0 0.0
2018-Feb-10 08:59N 46°12' W 123°47'0 0.0
2018-Feb-10 08:25N 46°12' W 123°47'0 0.0
2018-Feb-10 07:59N 46°12' W 123°47'0 0.0
2018-Feb-10 07:29N 46°12' W 123°47'0 0.0
2018-Feb-10 06:50N 46°12' W 123°47'0 0.0
2018-Feb-10 06:11N 46°12' W 123°47'0 0.1
2018-Feb-10 05:59N 46°12' W 123°47'0 0.3
2018-Feb-10 05:29N 46°12' W 123°47'0 0.1
2018-Feb-10 04:59N 46°12' W 123°47'0 0.0
2018-Feb-10 04:29N 46°12' W 123°47'0 0.0
2018-Feb-10 03:53N 46°12' W 123°47'0 0.1
2018-Feb-10 03:29N 46°12' W 123°47'0 0.0
2018-Feb-10 02:56N 46°12' W 123°47'0 0.2
2018-Feb-10 02:29N 46°12' W 123°47'0 0.1
2018-Feb-10 01:59N 46°12' W 123°47'0 0.1
2018-Feb-10 01:29N 46°12' W 123°47'0 0.0
2018-Feb-10 00:59N 46°12' W 123°47'0 0.2
2018-Feb-10 00:29N 46°12' W 123°47'0 0.0
2018-Feb-09 23:58N 46°12' W 123°47'0 0.0
2018-Feb-09 23:29N 46°12' W 123°47'0 0.0
2018-Feb-09 22:43N 46°12' W 123°47'0 0.0
2018-Feb-08 01:25N 46°12' W 123°47'0 0.0
2018-Feb-08 00:58N 46°12' W 123°47'0 0.1
2018-Feb-08 00:28N 46°12' W 123°47'0 0.3
2018-Feb-07 23:58N 46°12' W 123°47'0 0.2
2018-Feb-07 23:28N 46°12' W 123°47'0 0.0
2018-Feb-07 22:58N 46°12' W 123°47'0 0.1
2018-Feb-07 22:25N 46°12' W 123°47'0 0.0
2018-Feb-07 21:58N 46°12' W 123°47'0 0.0
2018-Feb-07 21:28N 46°12' W 123°47'0 0.0
2018-Feb-07 09:28N 46°12' W 123°47'0 0.1
2018-Feb-07 08:58N 46°12' W 123°47'0 0.0
2018-Feb-07 08:28N 46°12' W 123°47'0 0.0
2018-Feb-07 07:58N 46°12' W 123°47'0 0.0
2018-Feb-07 07:28N 46°12' W 123°47'0 0.0
2018-Feb-07 06:58N 46°12' W 123°47'0 0.0
2018-Feb-07 06:25N 46°12' W 123°47'0 0.0
2018-Feb-07 05:58N 46°12' W 123°47'0 0.0
2018-Feb-07 05:28N 46°12' W 123°47'0 0.0
2018-Feb-07 04:58N 46°12' W 123°47'0 0.0
2018-Feb-07 04:28N 46°12' W 123°47'0 0.0
2018-Feb-07 03:58N 46°12' W 123°47'0 0.0
2018-Feb-07 03:28N 46°12' W 123°47'0 0.1
2018-Feb-07 02:58N 46°12' W 123°47'0 0.1
2018-Feb-07 01:31N 46°12' W 123°47'0 0.2
2018-Feb-07 01:28N 46°12' W 123°47'0 0.0
2018-Feb-07 00:58N 46°12' W 123°47'0 0.0
2018-Feb-07 00:28N 46°12' W 123°47'0 0.0
2018-Feb-06 23:58N 46°12' W 123°47'0 0.0
2018-Feb-06 23:28N 46°12' W 123°47'0 0.1
2018-Feb-06 22:58N 46°12' W 123°47'0 0.3
2018-Feb-06 22:28N 46°12' W 123°47'0 0.1
2018-Feb-06 21:52N 46°12' W 123°47'0 0.0
2018-Feb-06 21:25N 46°12' W 123°47'0 0.1
2018-Feb-06 20:58N 46°12' W 123°47'0 0.0
2018-Feb-06 20:28N 46°12' W 123°47'0 0.0
2018-Feb-06 19:58N 46°12' W 123°47'0 0.0
2018-Feb-06 19:07N 46°12' W 123°47'0 0.0
2018-Feb-06 18:55N 46°12' W 123°47'0 0.0
2018-Feb-06 18:28N 46°12' W 123°47'0 0.0
2018-Feb-06 17:34N 46°12' W 123°47'0 0.1
2018-Feb-06 17:28N 46°12' W 123°47'0 0.0
2018-Feb-06 16:55N 46°12' W 123°47'0 0.0
2018-Feb-06 16:28N 46°12' W 123°47'0 0.0
2018-Feb-06 15:58N 46°12' W 123°47'0 0.0
2018-Feb-06 15:28N 46°12' W 123°47'0 0.1
2018-Feb-06 14:58N 46°12' W 123°47'0 0.4
2018-Feb-06 14:28N 46°13' W 123°47'0 0.1
2018-Feb-06 13:58N 46°12' W 123°47'0 0.0
2018-Feb-06 13:28N 46°12' W 123°47'0 0.0
2018-Feb-06 12:58N 46°12' W 123°47'0 0.0
2018-Feb-06 12:28N 46°12' W 123°47'0 0.0
2018-Feb-06 11:58N 46°13' W 123°47'0 0.0
2018-Feb-06 11:28N 46°12' W 123°47'0 0.0
2018-Feb-06 10:58N 46°12' W 123°47'0 0.0
2018-Feb-06 10:28N 46°12' W 123°47'0 0.0
2018-Feb-06 09:58N 46°12' W 123°47'0 0.0
2018-Feb-06 09:28N 46°12' W 123°47'0 0.2
2018-Feb-06 08:58N 46°12' W 123°47'0 0.1
2018-Feb-06 08:22N 46°12' W 123°47'0 0.1
2018-Feb-06 07:58N 46°12' W 123°47'0 0.1
2018-Feb-06 07:28N 46°12' W 123°47'0 0.0
2018-Feb-06 06:58N 46°12' W 123°47'0 0.0
2018-Feb-06 06:25N 46°12' W 123°47'0 0.0
2018-Feb-06 05:43N 46°12' W 123°47'0 0.0
2018-Feb-06 05:28N 46°12' W 123°47'0 0.0
2018-Feb-06 04:58N 46°12' W 123°47'0 0.0
2018-Feb-06 04:28N 46°12' W 123°47'0 0.1
2018-Feb-06 03:58N 46°12' W 123°47'0 0.0
2018-Feb-06 03:28N 46°12' W 123°47'0 0.0
2018-Feb-06 02:58N 46°12' W 123°47'0 0.2
2018-Feb-06 02:28N 46°12' W 123°47'0 0.3
2018-Feb-06 01:58N 46°13' W 123°47'0 0.1
2018-Feb-06 01:28N 46°12' W 123°47'0 0.0
2018-Feb-06 00:58N 46°12' W 123°47'0 0.0
2018-Feb-06 00:28N 46°12' W 123°47'0 0.0
2018-Feb-05 23:58N 46°12' W 123°47'0 0.0
2018-Feb-05 23:28N 46°12' W 123°47'0 0.0
2018-Feb-05 22:58N 46°12' W 123°47'0 0.0
2018-Feb-05 22:22N 46°12' W 123°47'0 0.0
2018-Feb-05 21:58N 46°12' W 123°47'0 0.0
2018-Feb-05 21:28N 46°12' W 123°47'0 0.2
2018-Feb-05 20:49N 46°12' W 123°47'0 0.1
2018-Feb-05 20:28N 46°12' W 123°47'0 0.1
2018-Feb-05 19:58N 46°12' W 123°47'0 0.0
2018-Feb-05 19:25N 46°12' W 123°47'0 0.0
2018-Feb-05 18:58N 46°12' W 123°47'0 0.1
2018-Feb-05 18:25N 46°12' W 123°47'0 0.0
2018-Feb-05 17:55N 46°12' W 123°47'0 0.1
2018-Feb-05 17:28N 46°12' W 123°47'0 0.0
2018-Feb-05 16:58N 46°12' W 123°47'0 0.0
2018-Feb-05 16:25N 46°12' W 123°47'0 0.0
2018-Feb-05 15:58N 46°12' W 123°47'0 0.0
2018-Feb-05 15:28N 46°12' W 123°47'0 0.0
2018-Feb-05 14:58N 46°12' W 123°47'0 0.2
2018-Feb-05 14:28N 46°12' W 123°47'0 0.3
2018-Feb-05 13:58N 46°13' W 123°47'0 0.0
2018-Feb-05 13:16N 46°13' W 123°47'0 0.0
2018-Feb-05 12:58N 46°13' W 123°47'0 0.0
2018-Feb-05 12:28N 46°13' W 123°47'0 0.0
2018-Feb-05 11:58N 46°13' W 123°47'0 0.0
2018-Feb-05 11:28N 46°13' W 123°47'0 0.0
2018-Feb-05 10:58N 46°13' W 123°47'0 0.0
2018-Feb-05 10:28N 46°13' W 123°47'0 0.0
2018-Feb-05 09:58N 46°13' W 123°47'0 0.0
2018-Feb-05 09:28N 46°13' W 123°47'0 0.0
2018-Feb-05 08:58N 46°12' W 123°47'0 0.1
2018-Feb-05 08:28N 46°12' W 123°47'0 0.3
2018-Feb-05 07:55N 46°12' W 123°47'0 0.1
2018-Feb-05 07:25N 46°12' W 123°47'0 0.1
2018-Feb-05 06:58N 46°12' W 123°47'  

Dump ship's entire track history